sensor_id;sensor_type;location;lat;lon;timestamp;P1;durP1;ratioP1;P2;durP2;ratioP2
76850;SDS011;65824;43.726;20.692;2023-05-27T00:00:19;19.90;;;10.05;;
76850;SDS011;65824;43.726;20.692;2023-05-27T00:02:46;19.35;;;9.75;;
76850;SDS011;65824;43.726;20.692;2023-05-27T00:05:12;15.18;;;8.90;;
76850;SDS011;65824;43.726;20.692;2023-05-27T00:07:38;17.77;;;10.30;;
76850;SDS011;65824;43.726;20.692;2023-05-27T00:10:06;18.77;;;9.93;;
76850;SDS011;65824;43.726;20.692;2023-05-27T00:12:32;20.48;;;10.18;;
76850;SDS011;65824;43.726;20.692;2023-05-27T00:14:58;18.80;;;10.68;;
76850;SDS011;65824;43.726;20.692;2023-05-27T00:17:23;18.50;;;9.65;;
76850;SDS011;65824;43.726;20.692;2023-05-27T00:19:51;14.60;;;9.38;;
76850;SDS011;65824;43.726;20.692;2023-05-27T00:22:16;16.35;;;9.43;;
76850;SDS011;65824;43.726;20.692;2023-05-27T00:24:45;17.23;;;9.55;;
76850;SDS011;65824;43.726;20.692;2023-05-27T00:27:10;13.10;;;8.05;;
76850;SDS011;65824;43.726;20.692;2023-05-27T00:29:36;17.13;;;8.80;;
76850;SDS011;65824;43.726;20.692;2023-05-27T00:32:02;14.70;;;8.23;;
76850;SDS011;65824;43.726;20.692;2023-05-27T00:34:29;15.32;;;8.93;;
76850;SDS011;65824;43.726;20.692;2023-05-27T00:36:56;15.20;;;8.23;;
76850;SDS011;65824;43.726;20.692;2023-05-27T00:39:22;15.02;;;7.97;;
76850;SDS011;65824;43.726;20.692;2023-05-27T00:41:48;14.23;;;7.53;;
76850;SDS011;65824;43.726;20.692;2023-05-27T00:44:14;15.25;;;7.53;;
76850;SDS011;65824;43.726;20.692;2023-05-27T00:46:40;13.85;;;7.38;;
76850;SDS011;65824;43.726;20.692;2023-05-27T00:49:07;14.38;;;7.40;;
76850;SDS011;65824;43.726;20.692;2023-05-27T00:51:33;14.50;;;7.90;;
76850;SDS011;65824;43.726;20.692;2023-05-27T00:53:58;13.98;;;7.70;;
76850;SDS011;65824;43.726;20.692;2023-05-27T00:56:24;14.70;;;8.05;;
76850;SDS011;65824;43.726;20.692;2023-05-27T00:58:50;12.73;;;7.68;;
76850;SDS011;65824;43.726;20.692;2023-05-27T01:01:16;13.43;;;7.55;;
76850;SDS011;65824;43.726;20.692;2023-05-27T01:03:42;15.65;;;7.68;;
76850;SDS011;65824;43.726;20.692;2023-05-27T01:11:44;14.65;;;7.90;;
76850;SDS011;65824;43.726;20.692;2023-05-27T01:14:17;15.43;;;7.65;;
76850;SDS011;65824;43.726;20.692;2023-05-27T01:16:43;14.30;;;7.40;;
76850;SDS011;65824;43.726;20.692;2023-05-27T01:19:14;17.10;;;8.02;;
76850;SDS011;65824;43.726;20.692;2023-05-27T01:21:47;13.68;;;7.75;;
76850;SDS011;65824;43.726;20.692;2023-05-27T01:24:15;13.57;;;7.65;;
76850;SDS011;65824;43.726;20.692;2023-05-27T01:26:41;14.38;;;7.93;;
76850;SDS011;65824;43.726;20.692;2023-05-27T01:29:07;14.23;;;7.43;;
76850;SDS011;65824;43.726;20.692;2023-05-27T01:31:34;13.25;;;7.50;;
76850;SDS011;65824;43.726;20.692;2023-05-27T01:34:05;15.48;;;7.22;;
76850;SDS011;65824;43.726;20.692;2023-05-27T01:36:36;14.88;;;7.65;;
76850;SDS011;65824;43.726;20.692;2023-05-27T01:39:14;11.20;;;6.78;;
76850;SDS011;65824;43.726;20.692;2023-05-27T01:41:40;13.18;;;7.07;;
76850;SDS011;65824;43.726;20.692;2023-05-27T01:44:07;12.98;;;6.95;;
76850;SDS011;65824;43.726;20.692;2023-05-27T01:46:34;17.05;;;7.30;;
76850;SDS011;65824;43.726;20.692;2023-05-27T01:49:00;11.27;;;6.78;;
76850;SDS011;65824;43.726;20.692;2023-05-27T01:51:26;11.93;;;7.03;;
76850;SDS011;65824;43.726;20.692;2023-05-27T01:53:54;10.75;;;6.72;;
76850;SDS011;65824;43.726;20.692;2023-05-27T01:56:20;12.60;;;6.35;;
76850;SDS011;65824;43.726;20.692;2023-05-27T01:58:47;11.55;;;6.15;;
76850;SDS011;65824;43.726;20.692;2023-05-27T02:01:12;12.02;;;6.72;;
76850;SDS011;65824;43.726;20.692;2023-05-27T02:03:38;11.85;;;6.82;;
76850;SDS011;65824;43.726;20.692;2023-05-27T02:06:03;14.43;;;6.60;;
76850;SDS011;65824;43.726;20.692;2023-05-27T02:08:29;9.27;;;5.70;;
76850;SDS011;65824;43.726;20.692;2023-05-27T02:10:54;11.45;;;5.82;;
76850;SDS011;65824;43.726;20.692;2023-05-27T02:13:20;11.02;;;5.80;;
76850;SDS011;65824;43.726;20.692;2023-05-27T02:15:46;10.90;;;6.05;;
76850;SDS011;65824;43.726;20.692;2023-05-27T02:18:11;11.75;;;5.50;;
76850;SDS011;65824;43.726;20.692;2023-05-27T02:20:38;10.35;;;5.45;;
76850;SDS011;65824;43.726;20.692;2023-05-27T02:23:06;8.88;;;5.32;;
76850;SDS011;65824;43.726;20.692;2023-05-27T02:25:31;11.70;;;5.63;;
76850;SDS011;65824;43.726;20.692;2023-05-27T02:27:58;12.23;;;5.65;;
76850;SDS011;65824;43.726;20.692;2023-05-27T02:30:27;12.40;;;5.53;;
76850;SDS011;65824;43.726;20.692;2023-05-27T02:32:56;10.32;;;5.15;;
76850;SDS011;65824;43.726;20.692;2023-05-27T02:35:22;10.20;;;5.10;;
76850;SDS011;65824;43.726;20.692;2023-05-27T02:37:47;9.35;;;5.20;;
76850;SDS011;65824;43.726;20.692;2023-05-27T02:40:23;9.55;;;5.85;;
76850;SDS011;65824;43.726;20.692;2023-05-27T02:42:57;9.93;;;5.05;;
76850;SDS011;65824;43.726;20.692;2023-05-27T02:45:22;11.95;;;5.90;;
76850;SDS011;65824;43.726;20.692;2023-05-27T02:47:48;10.77;;;5.30;;
76850;SDS011;65824;43.726;20.692;2023-05-27T02:50:14;11.35;;;6.20;;
76850;SDS011;65824;43.726;20.692;2023-05-27T02:52:40;9.13;;;5.20;;
76850;SDS011;65824;43.726;20.692;2023-05-27T02:55:05;11.98;;;5.65;;
76850;SDS011;65824;43.726;20.692;2023-05-27T02:57:32;13.18;;;6.43;;
76850;SDS011;65824;43.726;20.692;2023-05-27T02:59:57;11.38;;;5.65;;
76850;SDS011;65824;43.726;20.692;2023-05-27T03:02:23;11.60;;;5.35;;
76850;SDS011;65824;43.726;20.692;2023-05-27T03:04:48;10.40;;;6.00;;
76850;SDS011;65824;43.726;20.692;2023-05-27T03:07:14;11.43;;;6.13;;
76850;SDS011;65824;43.726;20.692;2023-05-27T03:09:39;10.93;;;5.70;;
76850;SDS011;65824;43.726;20.692;2023-05-27T03:12:05;10.95;;;5.88;;
76850;SDS011;65824;43.726;20.692;2023-05-27T03:14:31;9.57;;;5.50;;
76850;SDS011;65824;43.726;20.692;2023-05-27T03:16:56;10.75;;;5.72;;
76850;SDS011;65824;43.726;20.692;2023-05-27T03:19:25;11.45;;;6.72;;
76850;SDS011;65824;43.726;20.692;2023-05-27T03:21:50;12.63;;;6.72;;
76850;SDS011;65824;43.726;20.692;2023-05-27T03:24:16;13.35;;;6.75;;
76850;SDS011;65824;43.726;20.692;2023-05-27T03:26:42;13.60;;;7.57;;
76850;SDS011;65824;43.726;20.692;2023-05-27T03:29:07;13.00;;;6.97;;
76850;SDS011;65824;43.726;20.692;2023-05-27T03:31:32;10.80;;;6.43;;
76850;SDS011;65824;43.726;20.692;2023-05-27T03:33:59;13.95;;;7.00;;
76850;SDS011;65824;43.726;20.692;2023-05-27T03:36:24;11.63;;;6.63;;
76850;SDS011;65824;43.726;20.692;2023-05-27T03:38:51;12.98;;;6.32;;
76850;SDS011;65824;43.726;20.692;2023-05-27T03:41:21;12.18;;;6.22;;
76850;SDS011;65824;43.726;20.692;2023-05-27T03:43:46;11.77;;;6.00;;
76850;SDS011;65824;43.726;20.692;2023-05-27T03:46:12;13.05;;;6.30;;
76850;SDS011;65824;43.726;20.692;2023-05-27T03:48:40;12.60;;;6.00;;
76850;SDS011;65824;43.726;20.692;2023-05-27T03:51:05;12.57;;;6.10;;
76850;SDS011;65824;43.726;20.692;2023-05-27T03:53:31;12.32;;;6.47;;
76850;SDS011;65824;43.726;20.692;2023-05-27T03:55:58;11.15;;;6.60;;
76850;SDS011;65824;43.726;20.692;2023-05-27T03:58:23;10.52;;;6.15;;
76850;SDS011;65824;43.726;20.692;2023-05-27T04:00:48;11.55;;;5.65;;
76850;SDS011;65824;43.726;20.692;2023-05-27T04:03:14;11.45;;;6.35;;
76850;SDS011;65824;43.726;20.692;2023-05-27T04:05:41;11.70;;;6.05;;
76850;SDS011;65824;43.726;20.692;2023-05-27T04:08:06;12.32;;;7.00;;
76850;SDS011;65824;43.726;20.692;2023-05-27T04:10:32;11.27;;;5.82;;
76850;SDS011;65824;43.726;20.692;2023-05-27T04:12:57;10.25;;;5.97;;
76850;SDS011;65824;43.726;20.692;2023-05-27T04:15:24;10.65;;;5.65;;
76850;SDS011;65824;43.726;20.692;2023-05-27T04:17:51;10.27;;;5.32;;
76850;SDS011;65824;43.726;20.692;2023-05-27T04:20:16;11.05;;;6.03;;
76850;SDS011;65824;43.726;20.692;2023-05-27T04:22:42;11.27;;;5.43;;
76850;SDS011;65824;43.726;20.692;2023-05-27T04:25:08;11.27;;;6.15;;
76850;SDS011;65824;43.726;20.692;2023-05-27T04:27:35;11.00;;;6.07;;
76850;SDS011;65824;43.726;20.692;2023-05-27T04:30:07;9.63;;;6.03;;
76850;SDS011;65824;43.726;20.692;2023-05-27T04:32:33;11.27;;;5.95;;
76850;SDS011;65824;43.726;20.692;2023-05-27T04:35:03;9.85;;;5.25;;
76850;SDS011;65824;43.726;20.692;2023-05-27T04:37:34;8.88;;;5.05;;
76850;SDS011;65824;43.726;20.692;2023-05-27T04:40:07;10.90;;;5.35;;
76850;SDS011;65824;43.726;20.692;2023-05-27T04:42:35;10.32;;;5.00;;
76850;SDS011;65824;43.726;20.692;2023-05-27T04:45:04;9.18;;;5.47;;
76850;SDS011;65824;43.726;20.692;2023-05-27T04:47:31;10.95;;;5.10;;
76850;SDS011;65824;43.726;20.692;2023-05-27T04:49:58;10.52;;;4.93;;
76850;SDS011;65824;43.726;20.692;2023-05-27T04:52:26;9.60;;;5.15;;
76850;SDS011;65824;43.726;20.692;2023-05-27T04:54:52;9.27;;;4.80;;
76850;SDS011;65824;43.726;20.692;2023-05-27T04:57:20;8.02;;;4.88;;
76850;SDS011;65824;43.726;20.692;2023-05-27T04:59:46;9.88;;;4.60;;
76850;SDS011;65824;43.726;20.692;2023-05-27T05:02:25;9.13;;;5.10;;
76850;SDS011;65824;43.726;20.692;2023-05-27T05:04:58;9.57;;;5.10;;
76850;SDS011;65824;43.726;20.692;2023-05-27T05:07:25;9.10;;;5.07;;
76850;SDS011;65824;43.726;20.692;2023-05-27T05:09:50;8.07;;;4.57;;
76850;SDS011;65824;43.726;20.692;2023-05-27T05:12:16;10.18;;;5.15;;
76850;SDS011;65824;43.726;20.692;2023-05-27T05:14:41;9.52;;;5.10;;
76850;SDS011;65824;43.726;20.692;2023-05-27T05:17:07;9.07;;;4.60;;
76850;SDS011;65824;43.726;20.692;2023-05-27T05:19:33;8.45;;;4.72;;
76850;SDS011;65824;43.726;20.692;2023-05-27T05:21:59;9.57;;;5.43;;
76850;SDS011;65824;43.726;20.692;2023-05-27T05:24:24;8.98;;;4.63;;
76850;SDS011;65824;43.726;20.692;2023-05-27T05:26:50;7.75;;;4.65;;
76850;SDS011;65824;43.726;20.692;2023-05-27T05:29:16;8.98;;;4.50;;
76850;SDS011;65824;43.726;20.692;2023-05-27T05:31:42;7.90;;;4.60;;
76850;SDS011;65824;43.726;20.692;2023-05-27T05:34:11;8.00;;;4.50;;
76850;SDS011;65824;43.726;20.692;2023-05-27T05:36:36;9.23;;;4.28;;
76850;SDS011;65824;43.726;20.692;2023-05-27T05:39:02;11.50;;;5.20;;
76850;SDS011;65824;43.726;20.692;2023-05-27T05:41:28;10.43;;;5.15;;
76850;SDS011;65824;43.726;20.692;2023-05-27T05:43:54;10.30;;;5.75;;
76850;SDS011;65824;43.726;20.692;2023-05-27T05:46:20;9.77;;;4.97;;
76850;SDS011;65824;43.726;20.692;2023-05-27T05:48:46;10.63;;;5.00;;
76850;SDS011;65824;43.726;20.692;2023-05-27T05:51:12;10.40;;;4.82;;
76850;SDS011;65824;43.726;20.692;2023-05-27T05:53:38;8.52;;;4.88;;
76850;SDS011;65824;43.726;20.692;2023-05-27T05:56:03;8.45;;;4.72;;
76850;SDS011;65824;43.726;20.692;2023-05-27T05:58:29;8.40;;;4.35;;
76850;SDS011;65824;43.726;20.692;2023-05-27T06:00:55;9.85;;;4.50;;
76850;SDS011;65824;43.726;20.692;2023-05-27T06:03:20;8.55;;;4.47;;
76850;SDS011;65824;43.726;20.692;2023-05-27T06:05:46;8.00;;;4.40;;
76850;SDS011;65824;43.726;20.692;2023-05-27T06:08:12;14.10;;;4.80;;
76850;SDS011;65824;43.726;20.692;2023-05-27T06:10:38;9.77;;;4.47;;
76850;SDS011;65824;43.726;20.692;2023-05-27T06:13:08;10.20;;;4.68;;
76850;SDS011;65824;43.726;20.692;2023-05-27T06:15:36;10.88;;;4.78;;
76850;SDS011;65824;43.726;20.692;2023-05-27T06:18:02;8.20;;;4.82;;
76850;SDS011;65824;43.726;20.692;2023-05-27T06:20:30;11.18;;;5.32;;
76850;SDS011;65824;43.726;20.692;2023-05-27T06:22:57;8.32;;;4.80;;
76850;SDS011;65824;43.726;20.692;2023-05-27T06:25:22;14.20;;;5.95;;
76850;SDS011;65824;43.726;20.692;2023-05-27T06:27:49;11.07;;;5.75;;
76850;SDS011;65824;43.726;20.692;2023-05-27T06:30:14;7.80;;;4.82;;
76850;SDS011;65824;43.726;20.692;2023-05-27T06:32:40;9.98;;;5.45;;
76850;SDS011;65824;43.726;20.692;2023-05-27T06:35:05;9.25;;;4.88;;
76850;SDS011;65824;43.726;20.692;2023-05-27T06:37:31;9.35;;;5.90;;
76850;SDS011;65824;43.726;20.692;2023-05-27T06:39:56;8.95;;;5.07;;
76850;SDS011;65824;43.726;20.692;2023-05-27T06:42:22;11.00;;;5.97;;
76850;SDS011;65824;43.726;20.692;2023-05-27T06:44:48;11.15;;;5.60;;
76850;SDS011;65824;43.726;20.692;2023-05-27T06:47:13;8.93;;;5.13;;
76850;SDS011;65824;43.726;20.692;2023-05-27T06:49:42;10.63;;;5.47;;
76850;SDS011;65824;43.726;20.692;2023-05-27T06:52:08;12.30;;;5.93;;
76850;SDS011;65824;43.726;20.692;2023-05-27T06:54:35;14.82;;;5.75;;
76850;SDS011;65824;43.726;20.692;2023-05-27T06:57:01;19.40;;;6.35;;
76850;SDS011;65824;43.726;20.692;2023-05-27T06:59:28;13.48;;;6.38;;
76850;SDS011;65824;43.726;20.692;2023-05-27T07:01:55;8.15;;;5.28;;
76850;SDS011;65824;43.726;20.692;2023-05-27T07:04:24;8.68;;;5.07;;
76850;SDS011;65824;43.726;20.692;2023-05-27T07:06:51;8.25;;;4.85;;
76850;SDS011;65824;43.726;20.692;2023-05-27T07:09:18;11.05;;;4.95;;
76850;SDS011;65824;43.726;20.692;2023-05-27T07:11:43;7.97;;;4.75;;
76850;SDS011;65824;43.726;20.692;2023-05-27T07:14:09;9.68;;;4.90;;
76850;SDS011;65824;43.726;20.692;2023-05-27T07:16:36;9.80;;;5.35;;
76850;SDS011;65824;43.726;20.692;2023-05-27T07:19:02;7.78;;;4.93;;
76850;SDS011;65824;43.726;20.692;2023-05-27T07:21:28;8.85;;;5.13;;
76850;SDS011;65824;43.726;20.692;2023-05-27T07:24:00;7.97;;;5.50;;
76850;SDS011;65824;43.726;20.692;2023-05-27T07:26:28;9.15;;;5.43;;
76850;SDS011;65824;43.726;20.692;2023-05-27T07:28:56;10.73;;;5.20;;
76850;SDS011;65824;43.726;20.692;2023-05-27T07:31:22;10.50;;;5.70;;
76850;SDS011;65824;43.726;20.692;2023-05-27T07:33:47;12.00;;;5.80;;
76850;SDS011;65824;43.726;20.692;2023-05-27T07:36:13;8.77;;;5.15;;
76850;SDS011;65824;43.726;20.692;2023-05-27T07:38:38;8.05;;;5.65;;
76850;SDS011;65824;43.726;20.692;2023-05-27T07:41:04;12.07;;;5.88;;
76850;SDS011;65824;43.726;20.692;2023-05-27T07:43:30;10.25;;;6.20;;
76850;SDS011;65824;43.726;20.692;2023-05-27T07:45:55;9.43;;;6.30;;
76850;SDS011;65824;43.726;20.692;2023-05-27T07:48:21;9.32;;;5.72;;
76850;SDS011;65824;43.726;20.692;2023-05-27T07:50:48;9.65;;;4.82;;
76850;SDS011;65824;43.726;20.692;2023-05-27T07:53:13;9.55;;;5.35;;
76850;SDS011;65824;43.726;20.692;2023-05-27T07:55:38;8.27;;;5.60;;
76850;SDS011;65824;43.726;20.692;2023-05-27T07:58:04;10.13;;;5.22;;
76850;SDS011;65824;43.726;20.692;2023-05-27T08:00:30;11.00;;;6.00;;
76850;SDS011;65824;43.726;20.692;2023-05-27T08:02:56;9.13;;;5.63;;
76850;SDS011;65824;43.726;20.692;2023-05-27T08:05:22;12.70;;;5.50;;
76850;SDS011;65824;43.726;20.692;2023-05-27T08:07:48;9.02;;;5.78;;
76850;SDS011;65824;43.726;20.692;2023-05-27T08:10:15;8.85;;;5.38;;
76850;SDS011;65824;43.726;20.692;2023-05-27T08:12:40;7.90;;;5.25;;
76850;SDS011;65824;43.726;20.692;2023-05-27T08:15:07;9.48;;;5.18;;
76850;SDS011;65824;43.726;20.692;2023-05-27T08:17:32;8.38;;;5.80;;
76850;SDS011;65824;43.726;20.692;2023-05-27T08:19:58;8.20;;;5.43;;
76850;SDS011;65824;43.726;20.692;2023-05-27T08:22:23;10.18;;;5.03;;
76850;SDS011;65824;43.726;20.692;2023-05-27T08:24:49;7.85;;;4.65;;
76850;SDS011;65824;43.726;20.692;2023-05-27T08:27:15;8.45;;;5.03;;
76850;SDS011;65824;43.726;20.692;2023-05-27T08:29:41;11.15;;;5.72;;
76850;SDS011;65824;43.726;20.692;2023-05-27T08:32:07;11.02;;;5.85;;
76850;SDS011;65824;43.726;20.692;2023-05-27T08:34:34;10.15;;;6.30;;
76850;SDS011;65824;43.726;20.692;2023-05-27T08:37:01;9.35;;;5.75;;
76850;SDS011;65824;43.726;20.692;2023-05-27T08:39:28;10.30;;;5.93;;
76850;SDS011;65824;43.726;20.692;2023-05-27T08:41:53;11.27;;;6.38;;
76850;SDS011;65824;43.726;20.692;2023-05-27T08:44:22;12.25;;;5.97;;
76850;SDS011;65824;43.726;20.692;2023-05-27T08:46:48;9.32;;;6.22;;
76850;SDS011;65824;43.726;20.692;2023-05-27T08:49:15;10.82;;;6.25;;
76850;SDS011;65824;43.726;20.692;2023-05-27T08:51:41;10.13;;;5.82;;
76850;SDS011;65824;43.726;20.692;2023-05-27T08:54:10;11.48;;;6.68;;
76850;SDS011;65824;43.726;20.692;2023-05-27T08:56:36;11.93;;;6.25;;
76850;SDS011;65824;43.726;20.692;2023-05-27T08:59:02;10.60;;;6.40;;
76850;SDS011;65824;43.726;20.692;2023-05-27T09:01:29;13.38;;;6.57;;
76850;SDS011;65824;43.726;20.692;2023-05-27T09:03:55;11.27;;;6.72;;
76850;SDS011;65824;43.726;20.692;2023-05-27T09:06:22;11.52;;;6.28;;
76850;SDS011;65824;43.726;20.692;2023-05-27T09:08:48;9.88;;;7.05;;
76850;SDS011;65824;43.726;20.692;2023-05-27T09:11:25;10.55;;;6.68;;
76850;SDS011;65824;43.726;20.692;2023-05-27T09:13:57;9.82;;;6.22;;
76850;SDS011;65824;43.726;20.692;2023-05-27T09:16:22;10.95;;;6.68;;
76850;SDS011;65824;43.726;20.692;2023-05-27T09:18:48;12.50;;;6.70;;
76850;SDS011;65824;43.726;20.692;2023-05-27T09:21:14;10.40;;;6.53;;
76850;SDS011;65824;43.726;20.692;2023-05-27T09:23:40;10.07;;;6.25;;
76850;SDS011;65824;43.726;20.692;2023-05-27T09:26:09;9.32;;;6.63;;
76850;SDS011;65824;43.726;20.692;2023-05-27T09:28:35;13.82;;;7.10;;
76850;SDS011;65824;43.726;20.692;2023-05-27T09:31:03;12.57;;;6.82;;
76850;SDS011;65824;43.726;20.692;2023-05-27T09:33:33;11.23;;;6.55;;
76850;SDS011;65824;43.726;20.692;2023-05-27T09:36:04;12.50;;;7.70;;
76850;SDS011;65824;43.726;20.692;2023-05-27T09:38:30;12.23;;;7.07;;
76850;SDS011;65824;43.726;20.692;2023-05-27T09:40:57;11.05;;;6.85;;
76850;SDS011;65824;43.726;20.692;2023-05-27T09:43:26;11.20;;;6.80;;
76850;SDS011;65824;43.726;20.692;2023-05-27T09:45:59;12.60;;;6.88;;
76850;SDS011;65824;43.726;20.692;2023-05-27T09:48:29;9.23;;;5.78;;
76850;SDS011;65824;43.726;20.692;2023-05-27T09:50:56;9.77;;;6.32;;
76850;SDS011;65824;43.726;20.692;2023-05-27T09:53:22;11.23;;;6.85;;
76850;SDS011;65824;43.726;20.692;2023-05-27T09:55:55;8.88;;;6.43;;
76850;SDS011;65824;43.726;20.692;2023-05-27T09:58:21;10.50;;;6.70;;
76850;SDS011;65824;43.726;20.692;2023-05-27T10:00:47;9.38;;;6.72;;
76850;SDS011;65824;43.726;20.692;2023-05-27T10:03:15;9.43;;;6.55;;
76850;SDS011;65824;43.726;20.692;2023-05-27T10:05:42;10.65;;;6.60;;
76850;SDS011;65824;43.726;20.692;2023-05-27T10:08:08;11.23;;;6.97;;
76850;SDS011;65824;43.726;20.692;2023-05-27T10:10:33;14.27;;;7.63;;
76850;SDS011;65824;43.726;20.692;2023-05-27T10:13:00;11.70;;;6.75;;
76850;SDS011;65824;43.726;20.692;2023-05-27T10:15:27;10.70;;;6.60;;
76850;SDS011;65824;43.726;20.692;2023-05-27T10:17:59;10.38;;;6.50;;
76850;SDS011;65824;43.726;20.692;2023-05-27T10:20:33;10.18;;;6.63;;
76850;SDS011;65824;43.726;20.692;2023-05-27T10:23:15;9.10;;;6.05;;
76850;SDS011;65824;43.726;20.692;2023-05-27T10:26:05;9.57;;;5.55;;
76850;SDS011;65824;43.726;20.692;2023-05-27T10:28:38;9.10;;;6.03;;
76850;SDS011;65824;43.726;20.692;2023-05-27T10:33:30;9.43;;;6.15;;
76850;SDS011;65824;43.726;20.692;2023-05-27T10:36:15;11.98;;;7.07;;
76850;SDS011;65824;43.726;20.692;2023-05-27T10:38:58;9.95;;;6.32;;
76850;SDS011;65824;43.726;20.692;2023-05-27T10:41:25;11.73;;;7.05;;
76850;SDS011;65824;43.726;20.692;2023-05-27T10:43:56;9.68;;;6.53;;
76850;SDS011;65824;43.726;20.692;2023-05-27T10:48:48;9.80;;;6.88;;
76850;SDS011;65824;43.726;20.692;2023-05-27T10:51:14;9.77;;;6.78;;
76850;SDS011;65824;43.726;20.692;2023-05-27T10:53:39;10.48;;;6.72;;
76850;SDS011;65824;43.726;20.692;2023-05-27T10:56:07;10.15;;;7.13;;
76850;SDS011;65824;43.726;20.692;2023-05-27T10:58:36;10.48;;;6.97;;
76850;SDS011;65824;43.726;20.692;2023-05-27T11:01:13;9.82;;;6.47;;
76850;SDS011;65824;43.726;20.692;2023-05-27T11:03:41;9.52;;;6.55;;
76850;SDS011;65824;43.726;20.692;2023-05-27T11:06:09;9.70;;;6.88;;
76850;SDS011;65824;43.726;20.692;2023-05-27T11:08:36;12.15;;;7.15;;
76850;SDS011;65824;43.726;20.692;2023-05-27T11:11:03;12.68;;;7.35;;
76850;SDS011;65824;43.726;20.692;2023-05-27T11:13:32;11.85;;;7.18;;
76850;SDS011;65824;43.726;20.692;2023-05-27T11:15:58;10.68;;;8.05;;
76850;SDS011;65824;43.726;20.692;2023-05-27T11:18:24;12.25;;;7.38;;
76850;SDS011;65824;43.726;20.692;2023-05-27T11:20:50;10.50;;;7.63;;
76850;SDS011;65824;43.726;20.692;2023-05-27T11:23:16;13.48;;;8.80;;
76850;SDS011;65824;43.726;20.692;2023-05-27T11:25:46;10.68;;;7.60;;
76850;SDS011;65824;43.726;20.692;2023-05-27T11:28:15;11.43;;;7.50;;
76850;SDS011;65824;43.726;20.692;2023-05-27T11:30:44;10.52;;;7.35;;
76850;SDS011;65824;43.726;20.692;2023-05-27T11:33:09;12.95;;;7.78;;
76850;SDS011;65824;43.726;20.692;2023-05-27T11:35:37;13.27;;;8.68;;
76850;SDS011;65824;43.726;20.692;2023-05-27T11:38:03;15.38;;;8.05;;
76850;SDS011;65824;43.726;20.692;2023-05-27T11:40:35;12.35;;;7.90;;
76850;SDS011;65824;43.726;20.692;2023-05-27T11:43:04;13.43;;;8.05;;
76850;SDS011;65824;43.726;20.692;2023-05-27T11:45:34;11.98;;;8.20;;
76850;SDS011;65824;43.726;20.692;2023-05-27T11:48:00;13.63;;;8.25;;
76850;SDS011;65824;43.726;20.692;2023-05-27T11:50:27;11.85;;;7.72;;
76850;SDS011;65824;43.726;20.692;2023-05-27T11:52:58;14.00;;;8.55;;
76850;SDS011;65824;43.726;20.692;2023-05-27T11:55:23;12.13;;;7.88;;
76850;SDS011;65824;43.726;20.692;2023-05-27T11:57:49;10.55;;;7.90;;
76850;SDS011;65824;43.726;20.692;2023-05-27T12:00:15;15.60;;;8.57;;
76850;SDS011;65824;43.726;20.692;2023-05-27T12:02:41;12.45;;;8.15;;
76850;SDS011;65824;43.726;20.692;2023-05-27T12:05:08;11.95;;;7.78;;
76850;SDS011;65824;43.726;20.692;2023-05-27T12:07:34;12.23;;;8.15;;
76850;SDS011;65824;43.726;20.692;2023-05-27T12:10:01;13.07;;;8.73;;
76850;SDS011;65824;43.726;20.692;2023-05-27T12:12:26;11.48;;;8.40;;
76850;SDS011;65824;43.726;20.692;2023-05-27T12:14:52;12.00;;;8.55;;
76850;SDS011;65824;43.726;20.692;2023-05-27T12:17:17;12.23;;;8.07;;
76850;SDS011;65824;43.726;20.692;2023-05-27T12:19:43;12.60;;;8.82;;
76850;SDS011;65824;43.726;20.692;2023-05-27T12:22:08;12.35;;;8.48;;
76850;SDS011;65824;43.726;20.692;2023-05-27T12:24:34;13.40;;;8.45;;
76850;SDS011;65824;43.726;20.692;2023-05-27T12:27:01;16.00;;;9.27;;
76850;SDS011;65824;43.726;20.692;2023-05-27T12:29:27;12.25;;;8.60;;
76850;SDS011;65824;43.726;20.692;2023-05-27T12:31:54;11.93;;;7.78;;
76850;SDS011;65824;43.726;20.692;2023-05-27T12:34:25;14.00;;;8.55;;
76850;SDS011;65824;43.726;20.692;2023-05-27T12:36:51;14.32;;;9.10;;
76850;SDS011;65824;43.726;20.692;2023-05-27T12:39:18;11.65;;;8.32;;
76850;SDS011;65824;43.726;20.692;2023-05-27T12:41:44;13.13;;;9.13;;
76850;SDS011;65824;43.726;20.692;2023-05-27T12:44:10;12.52;;;8.68;;
76850;SDS011;65824;43.726;20.692;2023-05-27T12:46:36;12.45;;;8.18;;
76850;SDS011;65824;43.726;20.692;2023-05-27T12:49:03;10.13;;;7.65;;
76850;SDS011;65824;43.726;20.692;2023-05-27T12:51:30;10.80;;;7.65;;
76850;SDS011;65824;43.726;20.692;2023-05-27T12:53:57;13.60;;;9.18;;
76850;SDS011;65824;43.726;20.692;2023-05-27T12:56:23;13.85;;;9.20;;
76850;SDS011;65824;43.726;20.692;2023-05-27T12:58:48;11.75;;;8.43;;
76850;SDS011;65824;43.726;20.692;2023-05-27T13:01:13;11.95;;;8.10;;
76850;SDS011;65824;43.726;20.692;2023-05-27T13:03:40;13.15;;;8.18;;
76850;SDS011;65824;43.726;20.692;2023-05-27T13:06:08;12.68;;;8.63;;
76850;SDS011;65824;43.726;20.692;2023-05-27T13:08:35;12.18;;;7.95;;
76850;SDS011;65824;43.726;20.692;2023-05-27T13:11:03;12.43;;;8.32;;
76850;SDS011;65824;43.726;20.692;2023-05-27T13:13:29;13.05;;;9.20;;
76850;SDS011;65824;43.726;20.692;2023-05-27T13:15:54;12.27;;;8.50;;
76850;SDS011;65824;43.726;20.692;2023-05-27T13:18:20;11.82;;;8.60;;
76850;SDS011;65824;43.726;20.692;2023-05-27T13:20:48;13.10;;;8.45;;
76850;SDS011;65824;43.726;20.692;2023-05-27T13:23:15;12.10;;;8.85;;
76850;SDS011;65824;43.726;20.692;2023-05-27T13:25:42;13.85;;;9.00;;
76850;SDS011;65824;43.726;20.692;2023-05-27T13:28:10;14.13;;;8.48;;
76850;SDS011;65824;43.726;20.692;2023-05-27T13:30:35;13.32;;;9.00;;
76850;SDS011;65824;43.726;20.692;2023-05-27T13:33:01;12.68;;;8.77;;
76850;SDS011;65824;43.726;20.692;2023-05-27T13:35:27;15.15;;;9.68;;
76850;SDS011;65824;43.726;20.692;2023-05-27T13:37:53;14.13;;;9.18;;
76850;SDS011;65824;43.726;20.692;2023-05-27T13:40:19;13.70;;;9.32;;
76850;SDS011;65824;43.726;20.692;2023-05-27T13:42:45;12.50;;;9.20;;
76850;SDS011;65824;43.726;20.692;2023-05-27T13:45:12;14.82;;;8.35;;
76850;SDS011;65824;43.726;20.692;2023-05-27T13:47:38;12.82;;;8.55;;
76850;SDS011;65824;43.726;20.692;2023-05-27T13:50:05;11.95;;;8.55;;
76850;SDS011;65824;43.726;20.692;2023-05-27T13:52:31;12.00;;;8.63;;
76850;SDS011;65824;43.726;20.692;2023-05-27T13:55:00;11.60;;;8.30;;
76850;SDS011;65824;43.726;20.692;2023-05-27T13:57:26;13.07;;;9.10;;
76850;SDS011;65824;43.726;20.692;2023-05-27T13:59:52;11.90;;;8.15;;
76850;SDS011;65824;43.726;20.692;2023-05-27T14:02:18;13.80;;;9.45;;
76850;SDS011;65824;43.726;20.692;2023-05-27T14:04:43;15.35;;;9.68;;
76850;SDS011;65824;43.726;20.692;2023-05-27T14:07:09;15.73;;;9.98;;
76850;SDS011;65824;43.726;20.692;2023-05-27T14:09:35;13.40;;;8.90;;
76850;SDS011;65824;43.726;20.692;2023-05-27T14:12:01;11.95;;;8.60;;
76850;SDS011;65824;43.726;20.692;2023-05-27T14:14:27;11.88;;;8.43;;
76850;SDS011;65824;43.726;20.692;2023-05-27T14:16:53;13.85;;;9.57;;
76850;SDS011;65824;43.726;20.692;2023-05-27T14:19:18;14.55;;;8.38;;
76850;SDS011;65824;43.726;20.692;2023-05-27T14:21:44;14.27;;;10.65;;
76850;SDS011;65824;43.726;20.692;2023-05-27T14:24:10;11.38;;;8.85;;
76850;SDS011;65824;43.726;20.692;2023-05-27T14:26:37;15.13;;;8.55;;
76850;SDS011;65824;43.726;20.692;2023-05-27T14:29:03;12.98;;;8.60;;
76850;SDS011;65824;43.726;20.692;2023-05-27T14:31:29;16.67;;;9.48;;
76850;SDS011;65824;43.726;20.692;2023-05-27T14:33:56;14.07;;;8.90;;